Time;durP1;ratioP1;P1;durP2;ratioP2;P2;SDS_P1;SDS_P2;PMS_P1;PMS_P2;Temp;Humidity;BMP_temperature;BMP_pressure;BME280_temperature;BME280_humidity;BME280_pressure;Samples;Min_cycle;Max_cycle;Signal;HPM_P1;HPM_P2
2023/04/23 00:02:12;;;;;;;2.90;2.60;;;;;;;19.33;46.69;96230.50;10266385;28;20043;-72
2023/04/23 00:07:32;;;;;;;3.28;2.78;;;;;;;19.33;46.73;96227.78;10238358;28;20415;-72
2023/04/23 00:12:52;;;;;;;3.80;3.03;;;;;;;19.33;46.88;96220.47;10238278;28;20043;-72
2023/04/23 00:18:12;;;;;;;3.60;2.80;;;;;;;19.31;46.88;96220.03;10251536;28;20047;-72
2023/04/23 00:23:31;;;;;;;3.67;2.88;;;;;;;19.32;46.89;96215.41;10238404;29;20051;-72
2023/04/23 00:28:51;;;;;;;3.05;2.75;;;;;;;19.32;46.88;96212.69;10251350;29;20110;-72
2023/04/23 00:34:10;;;;;;;3.20;2.90;;;;;;;19.32;46.71;96208.09;10251203;28;20043;-72
2023/04/23 00:39:30;;;;;;;2.90;2.60;;;;;;;19.30;46.95;96199.53;10251172;28;20043;-72
2023/04/23 00:44:50;;;;;;;3.45;2.88;;;;;;;19.30;46.77;96198.75;10265338;29;20050;-72
2023/04/23 00:50:12;;;;;;;3.83;2.90;;;;;;;19.29;46.87;96199.88;10250984;28;20051;-72
2023/04/23 00:55:31;;;;;;;3.20;2.90;;;;;;;19.29;46.85;96189.88;10224461;29;20451;-72
2023/04/23 01:00:52;;;;;;;4.15;2.85;;;;;;;19.29;46.89;96194.50;10241528;29;20405;-74
2023/04/23 01:06:12;;;;;;;3.30;3.00;;;;;;;19.29;46.79;96194.50;10258175;28;20419;-74
2023/04/23 01:11:32;;;;;;;4.35;2.65;;;;;;;19.29;46.73;96200.66;10257940;28;20047;-74
2023/04/23 01:16:52;;;;;;;3.00;2.60;;;;;;;19.27;46.89;96197.53;10257792;28;20094;-74
2023/04/23 01:22:15;;;;;;;3.10;2.50;;;;;;;19.27;46.94;96191.34;10257573;28;20051;-74
2023/04/23 01:27:35;;;;;;;3.75;2.85;;;;;;;19.26;46.93;96193.22;10271939;28;20484;-74
2023/04/23 01:32:55;;;;;;;3.28;2.97;;;;;;;19.26;46.74;96190.53;10271716;28;20047;-74
2023/04/23 01:38:14;;;;;;;3.30;2.70;;;;;;;19.25;46.81;96183.56;10257125;28;20439;-74
2023/04/23 01:43:34;;;;;;;2.75;2.55;;;;;;;19.24;46.97;96197.41;10243340;28;20043;-74
2023/04/23 01:48:53;;;;;;;3.03;2.70;;;;;;;19.24;46.91;96214.38;10243217;28;20043;-74
2023/04/23 01:54:13;;;;;;;3.08;2.78;;;;;;;19.24;47.06;96205.50;10243211;29;20043;-74
2023/04/23 01:59:32;;;;;;;2.78;2.58;;;;;;;19.24;47.04;96202.78;10246826;29;20055;-74
2023/04/23 02:04:52;;;;;;;2.88;2.60;;;;;;;19.23;47.06;96185.00;10242648;28;20048;-74
2023/04/23 02:10:12;;;;;;;2.90;2.63;;;;;;;19.23;47.11;96193.09;10255494;28;20410;-74
2023/04/23 02:15:31;;;;;;;3.00;2.70;;;;;;;19.23;46.97;96198.50;10242147;28;20050;-74
2023/04/23 02:20:53;;;;;;;3.47;2.80;;;;;;;19.22;46.89;96200.44;10242117;28;20055;-74
2023/04/23 02:26:12;;;;;;;2.90;2.60;;;;;;;19.21;46.98;96200.75;10255115;28;20047;-73
2023/04/23 02:31:31;;;;;;;3.10;2.80;;;;;;;19.21;46.88;96200.75;10254817;28;20479;-74
2023/04/23 02:36:51;;;;;;;2.78;2.58;;;;;;;19.21;46.94;96203.47;10254785;28;20071;-74
2023/04/23 02:42:12;;;;;;;2.55;2.35;;;;;;;19.21;46.91;96208.84;10254452;28;20065;-74
2023/04/23 02:47:31;;;;;;;2.95;2.67;;;;;;;19.19;46.76;96205.72;10268727;28;20083;-74
2023/04/23 02:52:51;;;;;;;3.03;2.45;;;;;;;19.19;46.97;96205.72;10254225;28;20487;-74
2023/04/23 02:58:11;;;;;;;3.15;2.80;;;;;;;19.19;46.95;96211.09;10248276;28;20432;-74
2023/04/23 03:03:32;;;;;;;2.67;2.47;;;;;;;19.17;47.08;96193.34;10240677;28;20050;-74
2023/04/23 03:08:54;;;;;;;3.00;2.53;;;;;;;19.16;46.85;96194.44;10240364;28;20043;-73
2023/04/23 03:14:14;;;;;;;4.90;2.72;;;;;;;19.16;46.84;96191.75;10240101;28;20051;-74
2023/04/23 03:19:34;;;;;;;2.60;2.40;;;;;;;19.17;47.02;96192.56;10267690;28;20040;-74
2023/04/23 03:24:54;;;;;;;2.70;2.50;;;;;;;19.16;47.00;96204.47;10238717;28;20055;-74
2023/04/23 03:30:13;;;;;;;2.97;2.55;;;;;;;19.15;47.09;96201.00;10252830;28;20047;-74
2023/04/23 03:35:33;;;;;;;2.90;2.60;;;;;;;19.13;47.02;96203.25;10239317;28;20047;-74
2023/04/23 03:40:56;;;;;;;2.58;2.38;;;;;;;19.14;46.95;96204.03;10239581;28;20039;-74
2023/04/23 03:46:15;;;;;;;2.95;2.75;;;;;;;19.13;46.98;96178.94;10238876;28;20043;-74
2023/04/23 03:51:35;;;;;;;2.67;2.30;;;;;;;19.13;46.83;96168.16;10252142;28;20098;-74
2023/04/23 03:56:56;;;;;;;2.53;2.33;;;;;;;19.12;47.36;96207.06;10236309;28;20059;-74
2023/04/23 04:02:21;;;;;;;4.82;2.47;;;;;;;19.13;47.17;96121.44;10232932;28;20044;-74
2023/04/23 04:07:44;;;;;;;2.97;2.40;;;;;;;19.11;47.05;96140.69;10196377;29;20039;-74
2023/04/23 04:13:03;;;;;;;2.72;2.38;;;;;;;19.12;47.21;96150.34;10213964;29;20044;-74
2023/04/23 04:18:22;;;;;;;2.50;2.30;;;;;;;19.13;47.23;96160.03;10225258;29;20480;-74
2023/04/23 04:23:43;;;;;;;3.00;2.70;;;;;;;19.14;47.32;96147.31;10225176;29;20063;-74
2023/04/23 04:29:03;;;;;;;2.78;2.58;;;;;;;19.13;47.54;96161.94;10226231;29;20051;-74
2023/04/23 04:34:22;;;;;;;2.83;2.40;;;;;;;19.13;47.71;96160.03;10214814;29;20039;-74
2023/04/23 04:39:42;;;;;;;4.53;2.40;;;;;;;19.13;47.84;96159.22;10232635;29;20106;-75
2023/04/23 04:45:03;;;;;;;2.53;2.30;;;;;;;19.15;47.66;96179.41;10205797;29;20052;-75
2023/04/23 04:50:23;;;;;;;3.97;2.03;;;;;;;19.20;47.88;96180.28;10246637;28;20046;-74
2023/04/23 04:55:43;;;;;;;2.50;2.30;;;;;;;19.22;48.01;96186.94;10166275;29;20560;-74
2023/04/23 05:01:04;;;;;;;2.13;1.50;;;;;;;19.26;47.90;96184.34;10215370;29;20044;-75
2023/04/23 05:06:23;;;;;;;1.75;1.50;;;;;;;19.24;48.39;96195.47;10222635;28;20040;-76
2023/04/23 05:11:43;;;;;;;2.45;1.60;;;;;;;19.24;48.45;96192.78;10205039;29;20404;-74
2023/04/23 05:17:02;;;;;;;2.13;1.92;;;;;;;19.23;48.40;96201.22;10204408;29;20424;-75
2023/04/23 05:22:22;;;;;;;2.22;1.70;;;;;;;19.24;48.58;96202.78;10232271;29;20106;-74
2023/04/23 05:27:42;;;;;;;2.65;2.30;;;;;;;19.22;48.08;96210.44;10203468;29;20046;-75
2023/04/23 05:33:01;;;;;;;2.10;1.90;;;;;;;19.21;48.23;96208.84;10203793;29;20051;-76
2023/04/23 05:38:20;;;;;;;2.90;2.58;;;;;;;19.18;48.18;96207.63;10231082;29;20087;-75
2023/04/23 05:43:40;;;;;;;2.78;2.42;;;;;;;19.17;48.11;96214.94;10231353;29;20050;-76
2023/04/23 05:49:00;;;;;;;2.75;2.38;;;;;;;19.17;48.17;96219.56;10203078;29;20039;-75
2023/04/23 05:54:19;;;;;;;5.20;2.90;;;;;;;19.17;48.10;96223.03;10216403;29;20048;-75
2023/04/23 05:59:38;;;;;;;3.40;2.20;;;;;;;19.16;48.18;96218.75;10206808;29;20124;-74
2023/04/23 06:04:58;;;;;;;2.58;2.10;;;;;;;19.17;48.14;96225.75;10202834;29;20416;-75
2023/04/23 06:10:18;;;;;;;2.28;1.88;;;;;;;19.17;47.99;96216.88;10216116;29;20051;-72
2023/04/23 06:29:19;;;;;;;3.45;1.50;;;;;;;18.89;48.05;96227.47;10494926;27;20403;-47
2023/04/23 06:34:49;;;;;;;2.92;2.42;;;;;;;18.90;48.13;96224.44;10504368;28;20048;-46
2023/04/23 06:40:10;;;;;;;2.40;1.77;;;;;;;18.95;48.52;96228.84;10505035;28;20550;-45
2023/04/23 06:45:30;;;;;;;2.17;1.98;;;;;;;18.96;48.60;96230.44;10504750;28;20045;-45
2023/04/23 06:50:50;;;;;;;4.75;2.17;;;;;;;18.98;48.67;96228.19;10504609;28;20036;-46
2023/04/23 06:56:10;;;;;;;3.10;2.10;;;;;;;18.99;48.67;96224.34;10504429;28;20048;-48
2023/04/23 07:01:29;;;;;;;2.10;1.88;;;;;;;19.00;48.78;96220.53;10504348;28;20481;-46
2023/04/23 07:06:49;;;;;;;3.03;2.40;;;;;;;19.03;48.82;96219.06;10503957;28;20036;-46
2023/04/23 07:12:08;;;;;;;3.60;2.35;;;;;;;19.03;48.72;96214.44;10503850;28;20041;-47
2023/04/23 07:17:27;;;;;;;2.95;2.17;;;;;;;19.03;48.78;96225.25;10526528;28;20056;-46
2023/04/23 07:22:47;;;;;;;2.17;1.80;;;;;;;19.03;48.86;96222.56;10544901;28;20040;-45
2023/04/23 07:28:07;;;;;;;2.55;2.35;;;;;;;19.03;48.80;96224.47;10451183;28;20460;-45
2023/04/23 07:33:26;;;;;;;2.97;1.95;;;;;;;19.03;48.77;96219.84;10528748;28;20047;-47
2023/04/23 07:38:45;;;;;;;5.18;2.47;;;;;;;19.05;48.71;96224.91;10513242;28;20523;-48
2023/04/23 07:44:05;;;;;;;1.83;1.70;;;;;;;19.04;48.70;96226.84;10516495;28;20086;-47
2023/04/23 07:49:24;;;;;;;2.20;2.00;;;;;;;19.05;48.68;96228.44;10515415;28;20045;-46
2023/04/23 07:54:45;;;;;;;1.83;1.65;;;;;;;19.05;48.71;96220.34;10481656;28;20496;-47
2023/04/23 08:00:08;;;;;;;2.40;1.77;;;;;;;19.07;48.66;96225.38;10452747;28;20044;-48
2023/04/23 08:05:31;;;;;;;2.63;2.15;;;;;;;19.05;48.69;96225.72;10474447;28;20049;-47
2023/04/23 08:10:50;;;;;;;2.17;1.80;;;;;;;19.08;48.71;96232.38;10473306;28;20068;-45
2023/04/23 08:16:10;;;;;;;2.10;1.90;;;;;;;19.06;48.81;96238.09;10474006;28;20052;-46
2023/04/23 08:21:33;;;;;;;3.08;2.15;;;;;;;19.06;48.66;96240.78;10460584;28;20076;-46
2023/04/23 08:26:52;;;;;;;1.90;1.70;;;;;;;19.06;48.61;96240.00;10466125;28;20060;-48
2023/04/23 08:32:12;;;;;;;2.83;2.20;;;;;;;19.07;48.65;96244.28;10472526;28;20045;-48
2023/04/23 08:37:31;;;;;;;4.30;2.60;;;;;;;19.04;48.13;96242.25;10473126;28;20071;-45
2023/04/23 08:43:00;;;;;;;4.05;2.40;;;;;;;19.01;48.97;96246.41;10472948;28;20053;-47
2023/04/23 08:48:20;;;;;;;4.07;2.70;;;;;;;19.02;49.07;96241.81;10458421;28;20068;-49
2023/04/23 08:53:43;;;;;;;2.83;2.50;;;;;;;19.01;48.95;96238.28;10472524;28;20041;-48
2023/04/23 08:59:02;;;;;;;3.15;2.67;;;;;;;18.99;48.44;96253.25;10457169;28;20561;-48
2023/04/23 09:04:24;;;;;;;3.25;2.70;;;;;;;18.98;48.91;96254.41;10472108;28;20049;-47
2023/04/23 09:09:44;;;;;;;2.63;2.40;;;;;;;18.98;48.99;96255.19;10471805;28;20512;-47
2023/04/23 09:15:11;;;;;;;2.78;2.50;;;;;;;18.97;49.14;96258.97;10471513;28;20379;-48
2023/04/23 09:20:30;;;;;;;3.35;2.65;;;;;;;18.97;49.04;96264.38;10471237;28;20048;-49
2023/04/23 09:25:51;;;;;;;3.65;2.75;;;;;;;18.98;49.17;96282.16;10456199;28;20056;-48
2023/04/23 09:31:10;;;;;;;3.15;2.75;;;;;;;18.99;49.30;96274.84;10470786;28;20386;-46
2023/04/23 09:36:30;;;;;;;2.63;1.70;;;;;;;18.99;48.70;96280.25;10470604;28;20053;-49
2023/04/23 09:41:52;;;;;;;2.10;1.30;;;;;;;18.96;47.01;96279.78;10470333;28;20049;-48
2023/04/23 09:47:14;;;;;;;2.60;1.77;;;;;;;18.94;47.10;96275.84;10470100;28;20044;-48
2023/04/23 09:52:37;;;;;;;1.83;1.70;;;;;;;18.95;47.84;96270.13;10469988;28;20041;-46
2023/04/23 09:57:57;;;;;;;2.28;2.08;;;;;;;18.96;48.01;96273.63;10490330;28;20048;-48
2023/04/23 10:03:26;;;;;;;3.53;2.15;;;;;;;18.95;48.51;96278.22;10510785;28;20051;-46
2023/04/23 10:08:45;;;;;;;5.10;2.30;;;;;;;18.95;48.30;96282.81;10510980;28;20041;-46
2023/04/23 10:14:06;;;;;;;2.35;1.50;;;;;;;18.95;47.49;96282.81;10510660;28;20480;-46
2023/04/23 10:19:27;;;;;;;1.88;1.52;;;;;;;18.89;47.29;96278.75;10510611;28;20045;-45
2023/04/23 10:24:54;;;;;;;2.83;1.35;;;;;;;18.89;48.23;96282.22;10474532;28;20128;-47
2023/04/23 10:30:13;;;;;;;3.38;1.83;;;;;;;18.92;48.50;96283.50;10469071;28;20488;-46
2023/04/23 10:35:33;;;;;;;3.42;2.00;;;;;;;18.92;48.93;96278.09;10453659;28;20048;-55
2023/04/23 10:40:54;;;;;;;5.03;1.80;;;;;;;18.94;49.25;96270.47;10466774;28;20045;-53
2023/04/23 10:46:32;;;;;;;5.32;2.00;;;;;;;18.93;49.48;96272.38;10451192;28;20043;-48
2023/04/23 10:52:09;;;;;;;4.85;1.83;;;;;;;18.94;49.32;96271.25;10450965;28;20080;-46
2023/04/23 10:57:29;;;;;;;4.88;1.98;;;;;;;18.95;49.55;96266.63;10468223;28;20056;-45
2023/04/23 11:02:49;;;;;;;4.63;1.90;;;;;;;18.95;49.69;96266.63;10468011;28;20492;-45
2023/04/23 11:08:09;;;;;;;2.20;1.60;;;;;;;18.94;49.68;96263.16;10468067;28;20041;-47
2023/04/23 11:13:29;;;;;;;2.33;1.60;;;;;;;18.95;49.87;96266.63;10468131;28;20051;-49
2023/04/23 11:19:11;;;;;;;3.58;1.80;;;;;;;18.94;50.04;96255.03;10475353;28;20044;-47
2023/04/23 11:24:32;;;;;;;3.78;1.70;;;;;;;18.96;50.17;96260.13;10474655;28;20052;-47
2023/04/23 11:29:52;;;;;;;2.20;1.80;;;;;;;18.96;50.17;96260.13;10475211;28;20045;-47
2023/04/23 11:35:16;;;;;;;3.60;1.80;;;;;;;18.96;50.35;96266.28;10474113;28;20079;-47
2023/04/23 11:40:39;;;;;;;2.05;1.38;;;;;;;18.98;50.65;96271.38;10475011;28;20401;-48
2023/04/23 11:45:59;;;;;;;29.13;12.50;;;;;;;19.00;51.51;96266.44;10474511;28;20041;-53
2023/04/23 11:51:24;;;;;;;56.45;25.52;;;;;;;19.01;52.93;96264.50;10474408;28;20041;-51
2023/04/23 11:56:44;;;;;;;8.52;4.22;;;;;;;18.93;51.46;96252.69;10474162;28;20060;-46
2023/04/23 12:02:04;;;;;;;12.00;4.80;;;;;;;18.85;51.07;96246.25;10473857;28;20067;-48
2023/04/23 12:07:31;;;;;;;16.77;8.35;;;;;;;18.90;53.49;96247.97;10473519;28;20037;-58
2023/04/23 12:12:51;;;;;;;15.40;6.93;;;;;;;18.94;54.60;96244.25;10473441;28;20045;-50
2023/04/23 12:18:11;;;;;;;12.82;6.18;;;;;;;18.99;55.46;96243.25;10472489;28;20492;-48
2023/04/23 12:23:32;;;;;;;15.07;7.45;;;;;;;19.05;55.82;96250.03;10471946;28;20045;-48
2023/04/23 12:28:54;;;;;;;15.45;7.05;;;;;;;19.09;55.71;96252.81;10459948;28;20057;-58
2023/04/23 12:34:17;;;;;;;10.43;6.30;;;;;;;19.09;55.77;96245.53;10472621;28;20033;-54
2023/04/23 12:39:37;;;;;;;11.27;6.03;;;;;;;19.08;56.10;96241.25;10469850;28;20067;-57
2023/04/23 12:45:04;;;;;;;13.18;6.57;;;;;;;19.07;55.92;96236.97;10470528;28;20486;-53
2023/04/23 12:50:24;;;;;;;11.38;6.15;;;;;;;19.07;56.10;96245.09;10468923;28;20044;-53
2023/04/23 12:55:44;;;;;;;10.60;4.82;;;;;;;19.07;56.26;96245.09;10472003;28;20051;-53
2023/04/23 13:01:04;;;;;;;11.13;5.78;;;;;;;19.07;56.38;96236.97;10471852;28;20041;-54
2023/04/23 13:06:25;;;;;;;9.00;4.88;;;;;;;19.07;56.47;96234.28;10471611;28;20045;-55
2023/04/23 13:11:47;;;;;;;11.88;5.78;;;;;;;19.08;56.25;96221.56;10469953;28;20608;-55
2023/04/23 13:17:07;;;;;;;6.65;3.67;;;;;;;19.09;56.50;96221.25;10465286;28;20041;-56
2023/04/23 13:22:30;;;;;;;8.98;4.85;;;;;;;19.08;56.33;96214.25;10468277;28;20071;-56
2023/04/23 13:27:49;;;;;;;7.22;4.15;;;;;;;19.09;56.59;96207.75;10458334;28;20053;-57
2023/04/23 13:33:09;;;;;;;7.13;3.80;;;;;;;19.10;56.43;96197.72;10471584;28;20048;-56
2023/04/23 13:38:29;;;;;;;7.80;3.40;;;;;;;19.11;56.69;96189.28;10465991;28;20045;-46
2023/04/23 13:43:48;;;;;;;11.10;3.70;;;;;;;19.12;56.73;96185.44;10470210;28;20037;-47
2023/04/23 13:49:08;;;;;;;9.07;3.60;;;;;;;19.16;56.85;96174.78;10468482;28;20543;-49
2023/04/23 13:54:28;;;;;;;4.95;3.25;;;;;;;19.19;56.94;96170.59;10469817;28;20099;-45
2023/04/23 13:59:47;;;;;;;8.98;3.75;;;;;;;19.15;56.17;96168.59;10469650;28;20396;-46
2023/04/23 14:05:07;;;;;;;5.18;3.03;;;;;;;19.11;55.27;96167.69;10456074;28;20075;-46
2023/04/23 14:10:27;;;;;;;5.88;3.40;;;;;;;19.09;54.58;96167.25;10469281;28;20044;-46
2023/04/23 14:15:46;;;;;;;4.55;3.17;;;;;;;19.06;54.44;96157.09;10469127;28;20045;-48
2023/04/23 14:21:06;;;;;;;6.28;3.40;;;;;;;19.07;54.21;96166.78;10468668;28;20044;-47
2023/04/23 14:26:27;;;;;;;6.20;3.00;;;;;;;19.07;54.44;96161.41;10461595;28;20459;-48
2023/04/23 14:31:47;;;;;;;5.70;2.95;;;;;;;19.06;54.09;96150.94;10454897;28;20056;-48
2023/04/23 14:37:07;;;;;;;5.38;3.08;;;;;;;19.05;54.14;96147.44;10468354;28;20040;-48
2023/04/23 14:42:26;;;;;;;33.20;8.30;;;;;;;19.06;54.38;96148.22;10468640;28;20497;-46
2023/04/23 14:47:49;;;;;;;16.40;5.28;;;;;;;19.04;53.45;96135.06;10471002;28;20447;-45
2023/04/23 14:53:09;;;;;;;36.47;9.73;;;;;;;19.05;54.19;96141.22;10462759;28;20053;-46
2023/04/23 14:58:28;;;;;;;28.85;7.75;;;;;;;19.06;54.62;96132.03;10463356;28;20041;-49
2023/04/23 15:03:48;;;;;;;20.67;6.55;;;;;;;19.09;54.84;96120.53;10476346;28;20044;-47
2023/04/23 15:09:08;;;;;;;19.83;5.15;;;;;;;19.09;54.80;96112.44;10476049;28;20041;-48
2023/04/23 15:14:31;;;;;;;17.73;5.20;;;;;;;19.08;54.99;96105.47;10475972;28;20045;-47
2023/04/23 15:19:53;;;;;;;17.38;4.65;;;;;;;19.08;53.81;96102.78;10474723;28;20452;-45
2023/04/23 15:25:12;;;;;;;12.63;4.95;;;;;;;19.05;53.12;96098.84;10472613;28;20452;-48
2023/04/23 15:30:32;;;;;;;19.90;6.38;;;;;;;19.03;53.46;96103.78;10474826;28;20041;-46
2023/04/23 15:35:51;;;;;;;18.75;5.95;;;;;;;19.05;53.47;96098.03;10474487;28;20041;-46
2023/04/23 15:41:12;;;;;;;20.30;5.88;;;;;;;19.05;53.51;96092.63;10461979;28;20076;-48
2023/04/23 15:46:32;;;;;;;16.00;5.43;;;;;;;19.05;53.43;96089.94;10473694;28;20052;-49
2023/04/23 15:51:52;;;;;;;11.20;4.00;;;;;;;19.04;52.24;96085.69;10458953;28;20064;-47
2023/04/23 15:57:12;;;;;;;15.20;5.63;;;;;;;19.02;52.93;96072.53;10474001;28;20049;-48
2023/04/23 16:02:33;;;;;;;17.38;5.70;;;;;;;19.01;53.00;96060.13;10474613;28;20045;-47
2023/04/23 16:07:53;;;;;;;14.02;5.25;;;;;;;19.01;53.06;96056.66;10474124;28;20040;-48
2023/04/23 16:13:12;;;;;;;14.27;4.78;;;;;;;19.02;53.34;96059.03;10474163;28;20045;-49
2023/04/23 16:18:32;;;;;;;12.68;4.68;;;;;;;19.02;53.40;96039.34;10473955;28;20052;-46
2023/04/23 16:23:51;;;;;;;10.63;4.45;;;;;;;19.03;53.60;96033.59;10473715;28;20209;-46
2023/04/23 16:29:11;;;;;;;15.00;4.60;;;;;;;19.03;53.70;96025.50;10459003;28;20053;-47
2023/04/23 16:34:30;;;;;;;12.20;4.53;;;;;;;19.05;53.62;96022.47;10472951;28;20045;-47
2023/04/23 16:39:50;;;;;;;9.15;4.30;;;;;;;19.04;53.66;96015.50;10472685;28;20041;-49
2023/04/23 16:45:10;;;;;;;12.48;4.38;;;;;;;19.06;53.57;96015.94;10472264;28;20090;-47
2023/04/23 16:50:30;;;;;;;13.00;4.53;;;;;;;19.04;53.34;96016.28;10472261;28;20041;-46
2023/04/23 16:55:49;;;;;;;8.52;3.83;;;;;;;19.03;53.55;96014.69;10472075;28;20103;-46
2023/04/23 17:01:09;;;;;;;11.20;3.80;;;;;;;19.03;53.48;96012.00;10470725;28;20041;-45
2023/04/23 17:06:30;;;;;;;10.45;3.97;;;;;;;19.04;53.39;96010.09;10471333;28;20091;-45
2023/04/23 17:11:50;;;;;;;10.15;3.88;;;;;;;19.03;53.57;96009.28;10470548;28;20048;-45
2023/04/23 17:17:09;;;;;;;8.40;3.83;;;;;;;19.04;54.25;95996.59;10470171;28;20048;-55
2023/04/23 17:22:29;;;;;;;9.00;3.72;;;;;;;19.05;54.96;95992.75;10471043;28;20036;-56
2023/04/23 17:27:49;;;;;;;5.70;2.65;;;;;;;19.04;54.91;95981.19;10460968;28;20056;-55
2023/04/23 17:33:08;;;;;;;10.55;3.15;;;;;;;19.03;54.98;95976.91;10469508;28;20048;-48
2023/04/23 17:38:28;;;;;;;3.90;1.88;;;;;;;19.04;55.13;95967.69;10470022;28;20416;-46
2023/04/23 17:43:48;;;;;;;9.35;3.30;;;;;;;19.03;54.89;95966.09;10470212;28;20443;-46
2023/04/23 17:49:09;;;;;;;10.30;3.17;;;;;;;19.03;54.70;95966.09;10469731;28;20045;-47
2023/04/23 17:54:28;;;;;;;6.88;2.97;;;;;;;19.04;54.83;95956.13;10469747;28;20481;-52
2023/04/23 17:59:47;;;;;;;8.07;3.10;;;;;;;19.02;54.84;95953.75;10466718;28;20052;-54
2023/04/23 18:05:12;;;;;;;13.40;3.15;;;;;;;19.03;54.70;95957.22;10469397;28;20504;-45
2023/04/23 18:10:31;;;;;;;5.80;2.60;;;;;;;19.02;54.71;95956.44;10455448;28;20044;-46
2023/04/23 18:15:51;;;;;;;6.10;2.90;;;;;;;19.03;54.94;95949.13;10451422;28;20071;-55
2023/04/23 18:21:13;;;;;;;9.23;3.35;;;;;;;19.03;55.12;95952.59;10455324;28;20402;-54
2023/04/23 18:26:32;;;;;;;7.75;3.20;;;;;;;19.03;55.11;95951.81;10459921;28;20053;-56
2023/04/23 18:31:52;;;;;;;7.63;3.00;;;;;;;19.02;55.02;95956.44;10463844;28;20052;-57
2023/04/23 18:37:31;;;;;;;7.63;3.22;;;;;;;19.02;54.86;95953.75;10466528;28;20049;-56
2023/04/23 18:42:51;;;;;;;6.80;3.08;;;;;;;19.02;54.91;95945.66;10467960;28;20041;-50
2023/04/23 18:48:40;;;;;;;7.07;3.05;;;;;;;19.02;55.02;95944.88;10468686;28;20049;-53
2023/04/23 18:54:00;;;;;;;4.93;3.00;;;;;;;19.01;54.85;95941.38;10468584;28;20378;-52
2023/04/23 18:59:20;;;;;;;9.63;3.00;;;;;;;19.02;54.99;95947.56;10468567;28;20049;-46
2023/04/23 19:04:39;;;;;;;6.43;3.10;;;;;;;19.01;55.17;95952.16;10466352;28;20045;-60
2023/04/23 19:09:59;;;;;;;6.55;2.92;;;;;;;19.01;55.06;95948.69;10468190;28;20104;-51
2023/04/23 19:15:19;;;;;;;5.68;3.30;;;;;;;19.00;55.09;95942.50;10468287;28;20136;-51
2023/04/23 19:20:38;;;;;;;6.13;3.28;;;;;;;18.99;55.10;95943.63;10468229;28;20041;-53
2023/04/23 19:25:58;;;;;;;6.53;3.53;;;;;;;18.99;55.07;95938.22;10463112;28;20056;-51
2023/04/23 19:31:17;;;;;;;5.50;3.28;;;;;;;18.98;55.00;95933.97;10467921;28;20049;-50
2023/04/23 19:36:37;;;;;;;7.43;3.75;;;;;;;18.98;55.03;95925.88;10474509;28;20052;-51
2023/04/23 19:41:57;;;;;;;8.07;3.97;;;;;;;18.98;54.94;95923.16;10475161;28;20404;-52
2023/04/23 19:47:17;;;;;;;5.57;3.47;;;;;;;18.97;54.94;95902.69;10474946;28;20090;-45
2023/04/23 19:52:37;;;;;;;8.48;3.75;;;;;;;18.98;55.13;95895.41;10474744;28;20056;-54
2023/04/23 19:57:57;;;;;;;6.20;3.50;;;;;;;18.98;55.11;95892.69;10474537;28;20049;-54
2023/04/23 20:03:17;;;;;;;6.88;3.53;;;;;;;18.97;55.24;95886.50;10474224;28;20091;-54
2023/04/23 20:09:03;;;;;;;8.05;3.53;;;;;;;18.98;55.11;95877.28;10473000;28;20045;-53
2023/04/23 20:14:22;;;;;;;6.97;3.50;;;;;;;18.98;55.35;95866.50;10473450;28;20439;-47
2023/04/23 20:19:42;;;;;;;5.90;2.97;;;;;;;18.96;55.38;95858.72;10467235;28;20048;-46
2023/04/23 20:25:02;;;;;;;6.95;3.40;;;;;;;18.98;55.23;95858.38;10468978;28;20516;-45
2023/04/23 20:30:22;;;;;;;5.25;2.88;;;;;;;18.99;55.29;95861.88;10457808;28;20061;-45
2023/04/23 20:35:42;;;;;;;6.05;3.35;;;;;;;18.99;55.29;95862.66;10450672;28;20513;-44
2023/04/23 20:41:01;;;;;;;5.18;3.13;;;;;;;18.99;55.17;95854.53;10470558;28;20091;-45
2023/04/23 20:46:22;;;;;;;5.13;3.10;;;;;;;18.99;55.19;95857.25;10470367;28;20052;-44
2023/04/23 20:51:42;;;;;;;5.35;3.00;;;;;;;19.00;55.16;95855.34;10470252;28;20044;-45
2023/04/23 20:57:02;;;;;;;4.78;2.95;;;;;;;18.99;55.26;95859.94;10469835;28;20055;-46
2023/04/23 21:02:23;;;;;;;4.68;2.75;;;;;;;18.99;55.05;95854.53;10469815;28;20048;-45
2023/04/23 21:07:43;;;;;;;5.82;2.97;;;;;;;19.01;55.25;95849.59;10469741;28;20052;-46
2023/04/23 21:13:04;;;;;;;4.85;2.85;;;;;;;18.99;55.13;95841.06;10437323;28;20060;-44
2023/04/23 21:18:23;;;;;;;3.90;2.92;;;;;;;18.99;54.97;95824.84;10441071;28;20049;-47
2023/04/23 21:23:43;;;;;;;4.47;2.95;;;;;;;18.98;54.91;95820.59;10469067;28;20447;-44
2023/04/23 21:29:02;;;;;;;4.88;2.97;;;;;;;18.96;54.90;95825.56;10455634;28;20061;-45
2023/04/23 21:34:22;;;;;;;4.68;3.13;;;;;;;18.96;54.76;95826.34;10455423;28;20080;-46
2023/04/23 21:39:41;;;;;;;4.15;2.85;;;;;;;18.95;54.60;95826.69;10468542;28;20099;-45
2023/04/23 21:45:01;;;;;;;4.70;2.85;;;;;;;18.95;54.53;95827.47;10468357;28;20099;-46
2023/04/23 21:50:21;;;;;;;3.50;2.50;;;;;;;18.95;54.39;95826.69;10468208;28;20041;-44
2023/04/23 21:55:41;;;;;;;3.80;2.60;;;;;;;18.95;54.38;95824.78;10467599;28;20045;-45
2023/04/23 22:01:01;;;;;;;4.60;2.67;;;;;;;18.95;54.38;95815.88;10452865;28;20044;-45
2023/04/23 22:06:20;;;;;;;4.50;3.03;;;;;;;18.94;54.20;95811.63;10461014;28;20481;-45
2023/04/23 22:11:40;;;;;;;2.80;2.53;;;;;;;18.94;54.22;95803.53;10463416;28;20041;-44
2023/04/23 22:17:00;;;;;;;2.92;2.30;;;;;;;18.92;54.29;95793.06;10467237;28;20049;-44
2023/04/23 22:22:20;;;;;;;3.53;2.80;;;;;;;18.93;54.05;95777.66;10467086;28;20493;-45
2023/04/23 22:27:40;;;;;;;4.82;2.72;;;;;;;18.92;53.92;95754.50;10457784;28;20060;-44
2023/04/23 22:32:59;;;;;;;4.82;2.95;;;;;;;18.92;54.11;95754.50;10466964;28;20048;-45
2023/04/23 22:38:18;;;;;;;4.10;2.90;;;;;;;18.93;53.92;95764.97;10466988;28;20074;-45
2023/04/23 22:43:38;;;;;;;3.53;2.70;;;;;;;18.91;53.96;95763.72;10466800;28;20041;-44
2023/04/23 22:49:00;;;;;;;3.13;2.65;;;;;;;18.91;53.93;95759.09;10466616;28;20041;-44
2023/04/23 22:54:19;;;;;;;3.10;2.53;;;;;;;18.91;53.77;95752.94;10453421;28;20103;-44
2023/04/23 22:59:39;;;;;;;3.42;2.38;;;;;;;18.89;53.87;95753.25;10466872;28;20408;-44
2023/04/23 23:04:58;;;;;;;3.92;2.50;;;;;;;18.89;53.82;95755.97;10468460;28;20452;-45
2023/04/23 23:10:18;;;;;;;3.28;2.50;;;;;;;18.90;53.76;95764.88;10473455;28;20044;-45
2023/04/23 23:15:38;;;;;;;3.03;2.70;;;;;;;18.89;53.78;95771.38;10462882;28;20052;-44
2023/04/23 23:20:57;;;;;;;4.38;2.65;;;;;;;18.88;53.64;95769.81;10475946;28;20481;-46
2023/04/23 23:26:17;;;;;;;2.85;2.35;;;;;;;18.89;53.57;95771.38;10462161;28;20061;-45
2023/04/23 23:31:37;;;;;;;4.60;2.40;;;;;;;18.87;53.52;95838.41;10475500;28;20045;-45
2023/04/23 23:36:56;;;;;;;3.88;2.45;;;;;;;18.87;53.48;95827.63;10462017;28;20053;-44
2023/04/23 23:42:16;;;;;;;3.17;2.47;;;;;;;18.86;53.45;95834.94;10474942;28;20041;-45
2023/04/23 23:47:35;;;;;;;2.55;2.30;;;;;;;18.85;53.49;95821.78;10474822;28;20048;-45
2023/04/23 23:52:55;;;;;;;3.38;2.40;;;;;;;18.84;53.39;95795.94;10461443;28;20080;-45
2023/04/23 23:58:14;;;;;;;3.00;2.50;;;;;;;18.85;53.38;95797.50;10461002;28;20049;-45
